createdAt,value
2019-03-17T00:00:23.151Z,0.00
2019-03-17T00:01:23.139Z,0.00
2019-03-17T00:02:23.189Z,0.00
2019-03-17T00:03:23.125Z,0.00
2019-03-17T00:04:31.370Z,0.00
2019-03-17T00:05:47.909Z,0.00
2019-03-17T00:06:47.900Z,0.00
2019-03-17T00:07:48.042Z,0.00
2019-03-17T00:08:47.883Z,0.00
2019-03-17T00:09:47.875Z,0.00
2019-03-17T00:10:47.864Z,0.00
2019-03-17T00:11:47.852Z,0.00
2019-03-17T00:12:47.842Z,0.00
2019-03-17T00:13:47.879Z,0.00
2019-03-17T00:14:47.819Z,0.00
2019-03-17T00:15:47.809Z,0.00
2019-03-17T00:16:47.799Z,0.00
2019-03-17T00:17:47.790Z,0.00
2019-03-17T00:18:47.785Z,0.00
2019-03-17T00:19:47.869Z,0.00
2019-03-17T00:20:47.762Z,0.00
2019-03-17T00:21:47.743Z,0.00
2019-03-17T00:22:47.744Z,0.00
2019-03-17T00:23:47.725Z,0.00
2019-03-17T00:24:47.722Z,0.00
2019-03-17T00:25:47.856Z,0.00
2019-03-17T00:26:47.693Z,0.00
2019-03-17T00:27:47.683Z,0.00
2019-03-17T00:28:47.672Z,0.00
2019-03-17T00:29:47.662Z,0.00
2019-03-17T00:30:47.652Z,0.00
2019-03-17T00:31:47.700Z,0.00
2019-03-17T00:32:47.635Z,0.00
2019-03-17T00:33:47.621Z,0.00
2019-03-17T00:34:47.611Z,0.00
2019-03-17T00:35:47.605Z,0.00
2019-03-17T00:36:47.590Z,0.00
2019-03-17T00:37:47.679Z,0.00
2019-03-17T00:38:47.574Z,0.00
2019-03-17T00:39:48.948Z,0.00
2019-03-17T00:40:47.545Z,0.00
2019-03-17T00:41:47.535Z,0.00
2019-03-17T00:42:47.532Z,0.00
2019-03-17T00:43:47.775Z,0.00
2019-03-17T00:44:47.503Z,0.00
2019-03-17T00:45:47.494Z,0.00
2019-03-17T00:46:47.480Z,0.00
2019-03-17T00:47:47.473Z,0.00
2019-03-17T00:48:47.463Z,0.00
2019-03-17T00:49:47.550Z,0.00
2019-03-17T00:50:48.977Z,0.00
2019-03-17T00:51:47.434Z,0.00
2019-03-17T00:52:47.420Z,0.00
2019-03-17T00:53:47.407Z,0.00
2019-03-17T00:54:47.407Z,0.00
2019-03-17T00:55:47.443Z,0.00
2019-03-17T00:56:47.392Z,0.00
2019-03-17T00:57:47.373Z,0.00
2019-03-17T00:58:47.358Z,0.00
2019-03-17T00:59:47.346Z,0.00
2019-03-17T01:00:47.338Z,0.00
2019-03-17T01:01:47.477Z,0.00
2019-03-17T01:02:47.313Z,0.00
2019-03-17T01:03:47.304Z,0.00
2019-03-17T01:04:55.744Z,0.00
2019-03-17T01:06:12.097Z,0.00
2019-03-17T01:07:12.192Z,0.00
2019-03-17T01:08:12.074Z,0.00
2019-03-17T01:09:12.063Z,0.00
2019-03-17T01:10:12.053Z,0.00
2019-03-17T01:11:12.039Z,0.00
2019-03-17T01:12:12.030Z,0.00
2019-03-17T01:13:12.069Z,0.00
2019-03-17T01:14:12.006Z,0.00
2019-03-17T01:15:11.999Z,0.00
2019-03-17T01:16:11.989Z,0.00
2019-03-17T01:17:11.983Z,4.00
2019-03-17T01:18:11.967Z,4.00
2019-03-17T01:19:12.111Z,4.00
2019-03-17T01:20:11.945Z,4.00
2019-03-17T01:21:11.939Z,4.00
2019-03-17T01:22:11.924Z,4.00
2019-03-17T01:23:11.918Z,8.00
2019-03-17T01:24:11.903Z,8.00
2019-03-17T01:25:11.943Z,12.00
2019-03-17T01:26:11.878Z,12.00
2019-03-17T01:27:11.869Z,16.00
2019-03-17T01:28:11.860Z,20.00
2019-03-17T01:29:11.849Z,20.00
2019-03-17T01:30:11.836Z,20.00
2019-03-17T01:31:11.929Z,28.00
2019-03-17T01:32:11.819Z,28.00
2019-03-17T01:33:11.810Z,32.00
2019-03-17T01:34:11.794Z,36.00
2019-03-17T01:35:11.783Z,40.00
2019-03-17T01:36:11.775Z,44.00
2019-03-17T01:37:12.019Z,48.00
2019-03-17T01:38:11.753Z,52.00
2019-03-17T01:39:11.740Z,56.00
2019-03-17T01:40:11.731Z,64.00
2019-03-17T01:41:11.717Z,72.00
2019-03-17T01:42:11.708Z,80.00
2019-03-17T01:43:11.753Z,88.00
2019-03-17T01:44:11.688Z,96.00
2019-03-17T01:45:11.684Z,112.00
2019-03-17T01:46:11.666Z,124.00
2019-03-17T01:47:11.660Z,140.00
2019-03-17T01:48:11.650Z,152.00
2019-03-17T01:49:11.689Z,168.00
2019-03-17T01:50:11.626Z,180.00
2019-03-17T01:51:11.614Z,192.00
2019-03-17T01:52:11.606Z,208.00
2019-03-17T01:53:11.589Z,216.00
2019-03-17T01:54:11.581Z,228.00
2019-03-17T01:55:11.721Z,244.00
2019-03-17T01:56:11.556Z,260.00
2019-03-17T01:57:11.548Z,280.00
2019-03-17T01:58:11.541Z,304.00
2019-03-17T01:59:11.526Z,328.00
2019-03-17T02:00:11.517Z,352.00
2019-03-17T02:01:12.008Z,376.00
2019-03-17T02:02:11.494Z,400.00
2019-03-17T02:03:11.484Z,420.00
2019-03-17T02:04:11.476Z,444.00
2019-03-17T02:05:21.544Z,464.00
2019-03-17T02:06:36.316Z,496.00
2019-03-17T02:07:36.304Z,516.00
2019-03-17T02:08:36.296Z,532.00
2019-03-17T02:09:36.280Z,556.00
2019-03-17T02:10:36.283Z,568.00
2019-03-17T02:11:36.715Z,588.00
2019-03-17T02:12:36.255Z,612.00
2019-03-17T02:13:36.244Z,644.00
2019-03-17T02:14:36.226Z,680.00
2019-03-17T02:15:36.230Z,720.00
2019-03-17T02:16:36.215Z,764.00
2019-03-17T02:17:36.302Z,816.00
2019-03-17T02:18:36.188Z,868.00
2019-03-17T02:19:36.178Z,924.00
2019-03-17T02:20:36.169Z,984.00
2019-03-17T02:21:36.157Z,1044.00
2019-03-17T02:22:36.149Z,1100.00
2019-03-17T02:23:36.190Z,1144.00
2019-03-17T02:24:36.124Z,1180.00
2019-03-17T02:25:36.113Z,1212.00
2019-03-17T02:26:36.106Z,1240.00
2019-03-17T02:27:36.094Z,1272.00
2019-03-17T02:28:36.083Z,1320.00
2019-03-17T02:29:36.323Z,1372.00
2019-03-17T02:30:36.062Z,1440.00
2019-03-17T02:31:36.052Z,1516.00
2019-03-17T02:32:36.041Z,1572.00
2019-03-17T02:33:36.030Z,1616.00
2019-03-17T02:34:36.019Z,1624.00
2019-03-17T02:35:39.242Z,1624.00
2019-03-17T02:36:36.001Z,1596.00
2019-03-17T02:37:35.985Z,1560.00
2019-03-17T02:38:36.003Z,1528.00
2019-03-17T02:39:36.052Z,1496.00
2019-03-17T02:40:35.961Z,1476.00
2019-03-17T02:41:36.042Z,1472.00
2019-03-17T02:42:35.947Z,1476.00
2019-03-17T02:43:35.921Z,1484.00
2019-03-17T02:44:35.910Z,1492.00
2019-03-17T02:45:35.907Z,1492.00
2019-03-17T02:46:35.999Z,1492.00
2019-03-17T02:47:35.880Z,1484.00
2019-03-17T02:48:35.933Z,1464.00
2019-03-17T02:49:35.857Z,1440.00
2019-03-17T02:50:35.845Z,1416.00
2019-03-17T02:51:35.839Z,1384.00
2019-03-17T02:52:35.873Z,1360.00
2019-03-17T02:53:35.814Z,1352.00
2019-03-17T02:54:35.806Z,1344.00
2019-03-17T02:55:35.800Z,1344.00
2019-03-17T02:56:35.783Z,1364.00
2019-03-17T02:57:36.023Z,1408.00
2019-03-17T02:58:35.762Z,1480.00
2019-03-17T02:59:35.749Z,1584.00
2019-03-17T03:00:35.742Z,1724.00
2019-03-17T03:01:35.726Z,1880.00
2019-03-17T03:02:35.724Z,2052.00
2019-03-17T03:03:35.756Z,2220.00
2019-03-17T03:04:35.710Z,2368.00
2019-03-17T03:05:35.687Z,2480.00
2019-03-17T03:06:35.677Z,2576.00
2019-03-17T03:07:35.666Z,2644.00
2019-03-17T03:08:35.657Z,2712.00
2019-03-17T03:09:35.694Z,2828.00
2019-03-17T03:10:35.643Z,3008.00
2019-03-17T03:11:35.633Z,3320.00
2019-03-17T03:12:35.673Z,3808.00
2019-03-17T03:13:35.614Z,4100.00
2019-03-17T03:14:35.601Z,4124.00
2019-03-17T03:15:35.788Z,4200.00
2019-03-17T03:16:35.571Z,4344.00
2019-03-17T03:17:35.561Z,4560.00
2019-03-17T03:18:35.553Z,4844.00
2019-03-17T03:19:35.539Z,5188.00
2019-03-17T03:20:35.530Z,5600.00
2019-03-17T03:21:35.570Z,5976.00
2019-03-17T03:22:35.512Z,6096.00
2019-03-17T03:23:35.512Z,6180.00
2019-03-17T03:24:35.489Z,6248.00
2019-03-17T03:25:35.503Z,6356.00
2019-03-17T03:26:35.478Z,6300.00
2019-03-17T03:27:35.557Z,6432.00
2019-03-17T03:28:35.454Z,7088.00
2019-03-17T03:29:35.434Z,7172.00
2019-03-17T03:30:35.456Z,6356.00
2019-03-17T03:31:35.412Z,6060.00
2019-03-17T03:32:35.403Z,5672.00
2019-03-17T03:33:35.545Z,5572.00
2019-03-17T03:34:35.384Z,5424.00
2019-03-17T03:35:35.372Z,5184.00
2019-03-17T03:36:35.357Z,5076.00
2019-03-17T03:37:35.347Z,5036.00
2019-03-17T03:38:35.335Z,5112.00
2019-03-17T03:39:35.383Z,5364.00
2019-03-17T03:40:35.317Z,5816.00
2019-03-17T03:41:35.302Z,6004.00
2019-03-17T03:42:35.294Z,6184.00
2019-03-17T03:43:35.284Z,6252.00
2019-03-17T03:44:35.349Z,6152.00
2019-03-17T03:45:35.366Z,5972.00
2019-03-17T03:46:35.249Z,5908.00
2019-03-17T03:47:35.242Z,5864.00
2019-03-17T03:48:35.232Z,5772.00
2019-03-17T03:49:35.221Z,5692.00
2019-03-17T03:50:35.214Z,5660.00
2019-03-17T03:51:35.350Z,5628.00
2019-03-17T03:52:35.187Z,5624.00
2019-03-17T03:53:35.174Z,5664.00
2019-03-17T03:54:35.171Z,5676.00
2019-03-17T03:55:35.159Z,5632.00
2019-03-17T03:56:35.156Z,5600.00
2019-03-17T03:57:35.180Z,5548.00
2019-03-17T03:58:35.123Z,5496.00
2019-03-17T03:59:35.114Z,5436.00
2019-03-17T04:00:35.102Z,5404.00
2019-03-17T04:01:35.091Z,5380.00
2019-03-17T04:02:35.086Z,5344.00
2019-03-17T04:03:35.137Z,5328.00
2019-03-17T04:04:35.059Z,5328.00
2019-03-17T04:05:35.049Z,5344.00
2019-03-17T04:06:35.061Z,5384.00
2019-03-17T04:07:35.030Z,5432.00
2019-03-17T04:08:35.017Z,5504.00
2019-03-17T04:09:35.405Z,5608.00
2019-03-17T04:10:34.995Z,5764.00
2019-03-17T04:11:34.993Z,5960.00
2019-03-17T04:12:34.987Z,6160.00
2019-03-17T04:13:34.966Z,6352.00
2019-03-17T04:14:34.955Z,6552.00
2019-03-17T04:15:35.041Z,6720.00
2019-03-17T04:16:34.936Z,6936.00
2019-03-17T04:17:34.919Z,7120.00
2019-03-17T04:18:34.916Z,7296.00
2019-03-17T04:19:34.905Z,7456.00
2019-03-17T04:20:34.934Z,7704.00
2019-03-17T04:21:34.956Z,7852.00
2019-03-17T04:22:34.868Z,7824.00
2019-03-17T04:23:34.854Z,7908.00
2019-03-17T04:24:34.855Z,7992.00
2019-03-17T04:25:34.837Z,7992.00
2019-03-17T04:26:34.874Z,7944.00
2019-03-17T04:27:34.814Z,7820.00
2019-03-17T04:28:34.808Z,7408.00
2019-03-17T04:29:34.795Z,7312.00
2019-03-17T04:30:34.782Z,7048.00
2019-03-17T04:31:34.922Z,6956.00
2019-03-17T04:32:34.758Z,6912.00
2019-03-17T04:33:34.754Z,6920.00
2019-03-17T04:34:34.742Z,6892.00
2019-03-17T04:35:34.741Z,7036.00
2019-03-17T04:36:39.963Z,7004.00
2019-03-17T04:37:35.910Z,7296.00
2019-03-17T04:38:34.699Z,7220.00
2019-03-17T04:39:34.687Z,7380.00
2019-03-17T04:40:34.673Z,7624.00
2019-03-17T04:41:34.665Z,7976.00
2019-03-17T04:42:34.657Z,8356.00
2019-03-17T04:43:34.692Z,8484.00
2019-03-17T04:44:34.640Z,8508.00
2019-03-17T04:45:34.636Z,8412.00
2019-03-17T04:46:34.610Z,8248.00
2019-03-17T04:47:34.600Z,8440.00
2019-03-17T04:48:34.592Z,7840.00
2019-03-17T04:49:34.734Z,7560.00
2019-03-17T04:50:34.573Z,7352.00
2019-03-17T04:51:34.566Z,7260.00
2019-03-17T04:52:34.553Z,7244.00
2019-03-17T04:53:34.543Z,7280.00
2019-03-17T04:54:34.534Z,7296.00
2019-03-17T04:55:34.573Z,7324.00
2019-03-17T04:56:34.514Z,7292.00
2019-03-17T04:57:34.502Z,7240.00
2019-03-17T04:58:34.489Z,7124.00
2019-03-17T04:59:34.484Z,7092.00
2019-03-17T05:00:34.470Z,6976.00
2019-03-17T05:01:34.515Z,6976.00
2019-03-17T05:02:34.450Z,7296.00
2019-03-17T05:03:34.439Z,7380.00
2019-03-17T05:04:34.428Z,7440.00
2019-03-17T05:05:34.416Z,7088.00
2019-03-17T05:06:34.407Z,7272.00
2019-03-17T05:07:34.544Z,7436.00
2019-03-17T05:08:34.408Z,8156.00
2019-03-17T05:09:34.381Z,8248.00
2019-03-17T05:10:34.370Z,8424.00
2019-03-17T05:11:34.355Z,8248.00
2019-03-17T05:12:34.347Z,8252.00
2019-03-17T05:13:34.387Z,8228.00
2019-03-17T05:14:34.326Z,8108.00
2019-03-17T05:15:34.320Z,7788.00
2019-03-17T05:16:35.795Z,7496.00
2019-03-17T05:17:34.294Z,7316.00
2019-03-17T05:18:34.285Z,6772.00
2019-03-17T05:19:34.327Z,7000.00
2019-03-17T05:20:34.261Z,7156.00
2019-03-17T05:21:34.260Z,7336.00
2019-03-17T05:22:34.244Z,7324.00
2019-03-17T05:23:34.235Z,7348.00
2019-03-17T05:24:34.232Z,7308.00
2019-03-17T05:25:34.465Z,7316.00
2019-03-17T05:26:34.207Z,7316.00
2019-03-17T05:27:34.193Z,7284.00
2019-03-17T05:28:34.185Z,7208.00
2019-03-17T05:29:34.177Z,7096.00
2019-03-17T05:30:34.163Z,6988.00
2019-03-17T05:31:34.206Z,6912.00
2019-03-17T05:32:34.140Z,6844.00
2019-03-17T05:33:34.134Z,6748.00
2019-03-17T05:34:34.121Z,6624.00
2019-03-17T05:35:34.110Z,6540.00
2019-03-17T05:36:34.095Z,6460.00
2019-03-17T05:37:34.189Z,6396.00
2019-03-17T05:38:34.077Z,6336.00
2019-03-17T05:39:34.068Z,6280.00
2019-03-17T05:40:34.059Z,6216.00
2019-03-17T05:41:34.052Z,6152.00
2019-03-17T05:42:34.039Z,6108.00
2019-03-17T05:43:34.278Z,6056.00
2019-03-17T05:44:34.043Z,6020.00
2019-03-17T05:45:34.009Z,5996.00
2019-03-17T05:46:33.997Z,5968.00
2019-03-17T05:47:33.987Z,5948.00
2019-03-17T05:48:33.976Z,5928.00
2019-03-17T05:49:34.071Z,5908.00
2019-03-17T05:50:33.964Z,5880.00
2019-03-17T05:51:33.945Z,5868.00
2019-03-17T05:52:33.937Z,5844.00
2019-03-17T05:53:33.925Z,5828.00
2019-03-17T05:54:33.913Z,5804.00
2019-03-17T05:55:34.011Z,5784.00
2019-03-17T05:56:33.893Z,5768.00
2019-03-17T05:57:33.885Z,5748.00
2019-03-17T05:58:33.870Z,5736.00
2019-03-17T05:59:33.860Z,5716.00
2019-03-17T06:00:33.854Z,5704.00
2019-03-17T06:01:33.992Z,5696.00
2019-03-17T06:02:33.826Z,5696.00
2019-03-17T06:03:33.822Z,5688.00
2019-03-17T06:04:33.809Z,5684.00
2019-03-17T06:05:33.798Z,5692.00
2019-03-17T06:06:33.790Z,5708.00
2019-03-17T06:07:33.878Z,5728.00
2019-03-17T06:08:33.890Z,5752.00
2019-03-17T06:09:33.757Z,5780.00
2019-03-17T06:10:33.746Z,5804.00
2019-03-17T06:11:33.730Z,5808.00
2019-03-17T06:12:33.724Z,5800.00
2019-03-17T06:13:33.764Z,5792.00
2019-03-17T06:14:33.704Z,5816.00
2019-03-17T06:15:33.692Z,5840.00
2019-03-17T06:16:33.685Z,5868.00
2019-03-17T06:17:33.673Z,5916.00
2019-03-17T06:18:33.661Z,6004.00
2019-03-17T06:19:33.806Z,6144.00
2019-03-17T06:20:33.644Z,6284.00
2019-03-17T06:21:33.630Z,6332.00
2019-03-17T06:22:33.623Z,6340.00
2019-03-17T06:23:33.614Z,6340.00
2019-03-17T06:24:33.601Z,6272.00
2019-03-17T06:25:33.740Z,6268.00
2019-03-17T06:26:33.583Z,6292.00
2019-03-17T06:27:33.572Z,6180.00
2019-03-17T06:28:33.561Z,6100.00
2019-03-17T06:29:33.545Z,6060.00
2019-03-17T06:30:33.538Z,6032.00
2019-03-17T06:31:33.579Z,5980.00
2019-03-17T06:32:33.517Z,6008.00
2019-03-17T06:33:33.509Z,6148.00
2019-03-17T06:34:33.499Z,6160.00
2019-03-17T06:35:33.484Z,6096.00
2019-03-17T06:36:33.476Z,5988.00
2019-03-17T06:37:33.609Z,5920.00
2019-03-17T06:38:33.451Z,5892.00
2019-03-17T06:39:33.441Z,5896.00
2019-03-17T06:40:33.432Z,5940.00
2019-03-17T06:41:33.423Z,5984.00
2019-03-17T06:42:33.413Z,5880.00
2019-03-17T06:43:33.450Z,5840.00
2019-03-17T06:44:33.388Z,5864.00
2019-03-17T06:45:33.380Z,5936.00
2019-03-17T06:46:33.375Z,5992.00
2019-03-17T06:47:33.359Z,6052.00
2019-03-17T06:48:33.350Z,6200.00
2019-03-17T06:49:33.387Z,6592.00
2019-03-17T06:50:33.328Z,7152.00
2019-03-17T06:51:33.311Z,7636.00
2019-03-17T06:52:33.304Z,7940.00
2019-03-17T06:53:33.292Z,8056.00
2019-03-17T06:54:33.281Z,8000.00
2019-03-17T06:55:33.330Z,7864.00
2019-03-17T06:56:33.263Z,7732.00
2019-03-17T06:57:33.252Z,7660.00
2019-03-17T06:58:33.243Z,7632.00
2019-03-17T06:59:33.229Z,7616.00
2019-03-17T07:00:33.373Z,7684.00
2019-03-17T07:01:33.209Z,7856.00
2019-03-17T07:02:33.199Z,7896.00
2019-03-17T07:03:33.190Z,8032.00
2019-03-17T07:04:33.181Z,8040.00
2019-03-17T07:05:33.169Z,7856.00
2019-03-17T07:06:33.209Z,7656.00
2019-03-17T07:07:43.355Z,7348.00
2019-03-17T07:08:57.943Z,7044.00
2019-03-17T07:09:57.933Z,6900.00
2019-03-17T07:10:57.928Z,6832.00
2019-03-17T07:11:57.964Z,6728.00
2019-03-17T07:12:57.906Z,6796.00
2019-03-17T07:13:57.896Z,6728.00
2019-03-17T07:14:57.883Z,6664.00
2019-03-17T07:15:57.877Z,6648.00
2019-03-17T07:16:57.865Z,6664.00
2019-03-17T07:17:58.258Z,6668.00
2019-03-17T07:18:57.847Z,6656.00
2019-03-17T07:19:57.838Z,6624.00
2019-03-17T07:20:57.837Z,6632.00
2019-03-17T07:21:57.816Z,6600.00
2019-03-17T07:22:57.807Z,6612.00
2019-03-17T07:23:57.848Z,6644.00
2019-03-17T07:24:57.786Z,6644.00
2019-03-17T07:25:57.772Z,6640.00
2019-03-17T07:26:57.759Z,6568.00
2019-03-17T07:27:57.796Z,6488.00
2019-03-17T07:28:57.737Z,6440.00
2019-03-17T07:29:57.782Z,6456.00
2019-03-17T07:30:57.722Z,6532.00
2019-03-17T07:31:57.712Z,6636.00
2019-03-17T07:32:57.700Z,6748.00
2019-03-17T07:33:57.689Z,6824.00
2019-03-17T07:34:57.680Z,6768.00
2019-03-17T07:35:57.821Z,6728.00
2019-03-17T07:36:57.658Z,6624.00
2019-03-17T07:37:57.652Z,6540.00
2019-03-17T07:38:57.641Z,6492.00
2019-03-17T07:39:57.626Z,6480.00
2019-03-17T07:40:57.619Z,6488.00
2019-03-17T07:41:57.711Z,6540.00
2019-03-17T07:42:57.600Z,6500.00
2019-03-17T07:43:57.588Z,6508.00
2019-03-17T07:44:57.580Z,6568.00
2019-03-17T07:45:57.566Z,6616.00
2019-03-17T07:46:57.560Z,6432.00
2019-03-17T07:47:57.598Z,6460.00
2019-03-17T07:48:57.539Z,6256.00
2019-03-17T07:49:57.527Z,6100.00
2019-03-17T07:50:57.516Z,6016.00
2019-03-17T07:51:57.535Z,5984.00
2019-03-17T07:52:57.495Z,5948.00
2019-03-17T07:53:57.637Z,5880.00
2019-03-17T07:54:57.476Z,5792.00
2019-03-17T07:55:57.463Z,5684.00
2019-03-17T07:56:57.455Z,5588.00
2019-03-17T07:57:57.446Z,5504.00
2019-03-17T07:58:57.436Z,5420.00
2019-03-17T07:59:57.528Z,5336.00
2019-03-17T08:00:57.415Z,5228.00
2019-03-17T08:01:57.400Z,5132.00
2019-03-17T08:02:57.393Z,5052.00
2019-03-17T08:03:57.386Z,4988.00
2019-03-17T08:04:57.373Z,4940.00
2019-03-17T08:05:57.409Z,4904.00
2019-03-17T08:06:57.367Z,4876.00
2019-03-17T08:08:08.803Z,4848.00
2019-03-17T08:08:58.433Z,4820.00
2019-03-17T08:09:57.337Z,4796.00
2019-03-17T08:10:57.307Z,4768.00
2019-03-17T08:11:57.403Z,4756.00
2019-03-17T08:12:57.291Z,4744.00
2019-03-17T08:13:57.282Z,4728.00
2019-03-17T08:14:57.888Z,4720.00
2019-03-17T08:15:57.265Z,4712.00
2019-03-17T08:16:57.253Z,4700.00
2019-03-17T08:17:57.288Z,4692.00
2019-03-17T08:18:57.231Z,4676.00
2019-03-17T08:19:57.220Z,4652.00
2019-03-17T08:20:57.240Z,4644.00
2019-03-17T08:21:57.201Z,4644.00
2019-03-17T08:22:57.193Z,4640.00
2019-03-17T08:23:57.227Z,4640.00
2019-03-17T08:24:57.182Z,4644.00
2019-03-17T08:25:57.159Z,4640.00
2019-03-17T08:26:57.154Z,4636.00
2019-03-17T08:27:57.139Z,4644.00
2019-03-17T08:28:57.279Z,4644.00
2019-03-17T08:29:57.116Z,4648.00
2019-03-17T08:30:57.106Z,4660.00
2019-03-17T08:31:57.098Z,4656.00
2019-03-17T08:32:57.098Z,4652.00
2019-03-17T08:33:57.079Z,4648.00
2019-03-17T08:34:57.166Z,4652.00
2019-03-17T08:35:57.056Z,4644.00
2019-03-17T08:36:57.047Z,4636.00
2019-03-17T08:37:57.034Z,4636.00
2019-03-17T08:38:57.033Z,4632.00
2019-03-17T08:39:57.015Z,4640.00
2019-03-17T08:40:57.104Z,4636.00
2019-03-17T08:41:56.992Z,4636.00
2019-03-17T08:42:56.979Z,4636.00
2019-03-17T08:43:56.969Z,4640.00
2019-03-17T08:44:57.054Z,4648.00
2019-03-17T08:45:56.948Z,4644.00
2019-03-17T08:46:57.093Z,4652.00
2019-03-17T08:47:58.567Z,4656.00
2019-03-17T08:48:56.919Z,4672.00
2019-03-17T08:49:56.918Z,4680.00
2019-03-17T08:50:56.913Z,4684.00
2019-03-17T08:51:56.895Z,4680.00
2019-03-17T08:52:56.981Z,4680.00
2019-03-17T08:53:56.872Z,4672.00
2019-03-17T08:54:56.860Z,4664.00
2019-03-17T08:55:56.847Z,4656.00
2019-03-17T08:56:56.844Z,4644.00
2019-03-17T08:57:56.824Z,4636.00
2019-03-17T08:58:56.921Z,4636.00
2019-03-17T08:59:56.810Z,4648.00
2019-03-17T09:00:56.796Z,4660.00
2019-03-17T09:01:56.790Z,4676.00
2019-03-17T09:02:56.780Z,4684.00
2019-03-17T09:03:56.766Z,4688.00
2019-03-17T09:04:56.913Z,4696.00
2019-03-17T09:05:56.755Z,4700.00
2019-03-17T09:06:56.732Z,4696.00
2019-03-17T09:07:56.729Z,4684.00
2019-03-17T09:08:56.723Z,4676.00
2019-03-17T09:09:56.704Z,4676.00
2019-03-17T09:10:56.748Z,4676.00
2019-03-17T09:11:56.687Z,4680.00
2019-03-17T09:12:56.677Z,4672.00
2019-03-17T09:13:56.668Z,4676.00
2019-03-17T09:14:56.657Z,4680.00
2019-03-17T09:15:56.700Z,4668.00
2019-03-17T09:16:56.638Z,4660.00
2019-03-17T09:17:56.624Z,4652.00
2019-03-17T09:18:56.614Z,4644.00
2019-03-17T09:19:56.601Z,4644.00
2019-03-17T09:20:56.590Z,4640.00
2019-03-17T09:21:56.831Z,4616.00
2019-03-17T09:22:56.573Z,4592.00
2019-03-17T09:23:56.566Z,4576.00
2019-03-17T09:24:56.551Z,4556.00
2019-03-17T09:25:56.542Z,4532.00
2019-03-17T09:26:56.531Z,4520.00
2019-03-17T09:27:56.571Z,4528.00
2019-03-17T09:28:56.513Z,4528.00
2019-03-17T09:29:56.508Z,4516.00
2019-03-17T09:30:56.488Z,4508.00
2019-03-17T09:31:56.482Z,4504.00
2019-03-17T09:32:56.468Z,4496.00
2019-03-17T09:33:56.507Z,4480.00
2019-03-17T09:34:56.464Z,4480.00
2019-03-17T09:35:56.443Z,4472.00
2019-03-17T09:36:56.430Z,4472.00
2019-03-17T09:37:56.414Z,4476.00
2019-03-17T09:38:56.414Z,4472.00
2019-03-17T09:39:56.448Z,4460.00
2019-03-17T09:40:56.387Z,4452.00
2019-03-17T09:41:56.376Z,4452.00
2019-03-17T09:42:56.366Z,4452.00
2019-03-17T09:43:56.358Z,4452.00
2019-03-17T09:44:56.493Z,4456.00
2019-03-17T09:45:56.331Z,4440.00
2019-03-17T09:46:56.332Z,4432.00
2019-03-17T09:47:56.315Z,4416.00
2019-03-17T09:48:56.304Z,4408.00
2019-03-17T09:49:56.296Z,4404.00
2019-03-17T09:50:56.336Z,4416.00
2019-03-17T09:51:56.271Z,4408.00
2019-03-17T09:52:56.267Z,4404.00
2019-03-17T09:53:56.255Z,4416.00
2019-03-17T09:54:56.240Z,4412.00
2019-03-17T09:55:56.233Z,4416.00
2019-03-17T09:56:56.275Z,4416.00
2019-03-17T09:57:56.212Z,4396.00
2019-03-17T09:58:56.199Z,4380.00
2019-03-17T09:59:56.192Z,4372.00
2019-03-17T10:00:56.181Z,4368.00
2019-03-17T10:01:56.171Z,4368.00
2019-03-17T10:02:56.211Z,4360.00
2019-03-17T10:03:56.150Z,4360.00
2019-03-17T10:04:56.138Z,4364.00
2019-03-17T10:05:56.131Z,4368.00
2019-03-17T10:06:56.119Z,4360.00
2019-03-17T10:07:56.107Z,4348.00
2019-03-17T10:09:00.379Z,4332.00
2019-03-17T10:09:56.087Z,4316.00
2019-03-17T10:10:56.078Z,4292.00
2019-03-17T10:11:56.069Z,4272.00
2019-03-17T10:12:56.062Z,4256.00
2019-03-17T10:13:56.194Z,4244.00
2019-03-17T10:14:56.037Z,4228.00
2019-03-17T10:15:56.022Z,4216.00
2019-03-17T10:16:56.018Z,4196.00
2019-03-17T10:17:56.006Z,4184.00
2019-03-17T10:18:55.996Z,4176.00
2019-03-17T10:19:56.035Z,4164.00
2019-03-17T10:20:55.975Z,4156.00
2019-03-17T10:21:55.963Z,4152.00
2019-03-17T10:22:55.953Z,4140.00
2019-03-17T10:23:55.944Z,4136.00
2019-03-17T10:24:55.933Z,4128.00
2019-03-17T10:25:55.974Z,4128.00
2019-03-17T10:26:55.910Z,4120.00
2019-03-17T10:27:55.903Z,4112.00
2019-03-17T10:28:55.889Z,4112.00
2019-03-17T10:29:55.876Z,4104.00
2019-03-17T10:30:55.968Z,4092.00
2019-03-17T10:31:55.857Z,4076.00
2019-03-17T10:32:55.844Z,4072.00
2019-03-17T10:33:55.839Z,4060.00
2019-03-17T10:34:55.822Z,4048.00
2019-03-17T10:35:55.813Z,4032.00
2019-03-17T10:36:55.910Z,4024.00
2019-03-17T10:37:55.795Z,4000.00
2019-03-17T10:38:55.785Z,3984.00
2019-03-17T10:39:55.775Z,3976.00
2019-03-17T10:40:55.762Z,3968.00
2019-03-17T10:41:56.162Z,3964.00
2019-03-17T10:42:55.744Z,3952.00
2019-03-17T10:43:55.737Z,3948.00
2019-03-17T10:44:55.721Z,3940.00
2019-03-17T10:45:55.708Z,3936.00
2019-03-17T10:46:55.708Z,3940.00
2019-03-17T10:47:55.745Z,3944.00
2019-03-17T10:48:55.679Z,3944.00
2019-03-17T10:49:55.669Z,3936.00
2019-03-17T10:50:55.654Z,3936.00
2019-03-17T10:51:55.645Z,3924.00
2019-03-17T10:52:55.651Z,3912.00
2019-03-17T10:53:55.677Z,3900.00
2019-03-17T10:54:55.616Z,3892.00
2019-03-17T10:55:55.611Z,3872.00
2019-03-17T10:56:55.597Z,3852.00
2019-03-17T10:57:55.586Z,3836.00
2019-03-17T10:58:55.577Z,3824.00
2019-03-17T10:59:55.718Z,3816.00
2019-03-17T11:00:55.555Z,3812.00
2019-03-17T11:01:55.546Z,3804.00
2019-03-17T11:02:55.533Z,3792.00
2019-03-17T11:03:55.523Z,3784.00
2019-03-17T11:04:55.515Z,3780.00
2019-03-17T11:05:55.552Z,3768.00
2019-03-17T11:06:55.491Z,3756.00
2019-03-17T11:07:55.479Z,3744.00
2019-03-17T11:08:55.476Z,3728.00
2019-03-17T11:09:55.462Z,3712.00
2019-03-17T11:10:55.551Z,3696.00
2019-03-17T11:11:55.442Z,3684.00
2019-03-17T11:12:55.433Z,3676.00
2019-03-17T11:13:55.418Z,3668.00
2019-03-17T11:14:55.410Z,3660.00
2019-03-17T11:15:55.546Z,3656.00
2019-03-17T11:16:55.384Z,3640.00
2019-03-17T11:17:55.379Z,3624.00
2019-03-17T11:18:55.381Z,3608.00
2019-03-17T11:19:55.360Z,3596.00
2019-03-17T11:20:55.348Z,3584.00
2019-03-17T11:21:55.434Z,3572.00
2019-03-17T11:22:55.322Z,3560.00
2019-03-17T11:23:55.313Z,3552.00
2019-03-17T11:24:55.304Z,3544.00
2019-03-17T11:25:55.291Z,3540.00
2019-03-17T11:26:55.822Z,3532.00
2019-03-17T11:27:55.318Z,3516.00
2019-03-17T11:28:55.264Z,3496.00
2019-03-17T11:29:55.249Z,3480.00
2019-03-17T11:30:55.242Z,3468.00
2019-03-17T11:31:55.228Z,3456.00
2019-03-17T11:32:55.219Z,3444.00
2019-03-17T11:33:55.357Z,3428.00
2019-03-17T11:34:55.201Z,3416.00
2019-03-17T11:35:55.182Z,3404.00
2019-03-17T11:36:55.180Z,3392.00
2019-03-17T11:37:55.166Z,3388.00
2019-03-17T11:38:55.158Z,3376.00
2019-03-17T11:39:55.250Z,3368.00
2019-03-17T11:40:55.136Z,3356.00
2019-03-17T11:41:55.124Z,3348.00
2019-03-17T11:42:55.114Z,3332.00
2019-03-17T11:43:55.102Z,3312.00
2019-03-17T11:44:55.142Z,3292.00
2019-03-17T11:45:55.090Z,3280.00
2019-03-17T11:46:55.075Z,3260.00
2019-03-17T11:47:55.063Z,3240.00
2019-03-17T11:48:55.052Z,3224.00
2019-03-17T11:49:55.044Z,3212.00
2019-03-17T11:50:55.132Z,3200.00
2019-03-17T11:51:55.020Z,3188.00
2019-03-17T11:52:55.020Z,3172.00
2019-03-17T11:53:54.999Z,3152.00
2019-03-17T11:54:54.990Z,3132.00
2019-03-17T11:55:54.974Z,3120.00
2019-03-17T11:57:55.007Z,3092.00
2019-03-17T11:58:54.947Z,3068.00
2019-03-17T11:59:54.939Z,3052.00
2019-03-17T12:00:54.926Z,3032.00
2019-03-17T12:01:54.914Z,3020.00
2019-03-17T12:02:54.922Z,3004.00
2019-03-17T12:03:55.012Z,2988.00
2019-03-17T12:04:54.887Z,2976.00
2019-03-17T12:05:54.877Z,2960.00
2019-03-17T12:06:54.866Z,2944.00
2019-03-17T12:07:54.857Z,2928.00
2019-03-17T12:08:54.844Z,2908.00
2019-03-17T12:09:54.889Z,2892.00
2019-03-17T12:10:54.831Z,2872.00
2019-03-17T12:11:54.811Z,2856.00
2019-03-17T12:12:54.803Z,2836.00
2019-03-17T12:13:54.793Z,2816.00
2019-03-17T12:14:54.782Z,2792.00
2019-03-17T12:15:54.825Z,2772.00
2019-03-17T12:16:54.760Z,2748.00
2019-03-17T12:17:54.753Z,2728.00